Time;durP1;ratioP1;P1;durP2;ratioP2;P2;SDS_P1;SDS_P2;PMS_P1;PMS_P2;Temp;Humidity;BMP_temperature;BMP_pressure;BME280_temperature;BME280_humidity;BME280_pressure;Samples;Min_cycle;Max_cycle;Signal;HPM_P1;HPM_P2
2021/08/14 00:01:01;;;;;;;7.90;4.38;;;;;;;;;;6254746;28;20114;-80
2021/08/14 00:04:03;;;;;;;7.03;4.15;;;;;;;;;;6257237;28;20503;-80
2021/08/14 00:07:05;;;;;;;5.70;4.25;;;;;;;;;;6237416;28;20118;-80
2021/08/14 00:10:07;;;;;;;6.07;4.43;;;;;;;;;;6232634;28;20037;-79
2021/08/14 00:13:08;;;;;;;8.52;4.60;;;;;;;;;;6230580;28;20061;-79
2021/08/14 00:16:10;;;;;;;7.05;4.47;;;;;;;;;;6224355;28;20054;-79
2021/08/14 00:19:12;;;;;;;5.70;4.43;;;;;;;;;;6229717;28;20050;-80
2021/08/14 00:22:13;;;;;;;8.70;4.93;;;;;;;;;;6219725;28;20054;-80
2021/08/14 00:25:15;;;;;;;7.30;4.60;;;;;;;;;;6226310;28;20109;-80
2021/08/14 00:28:17;;;;;;;9.07;5.10;;;;;;;;;;6225984;28;20054;-80
2021/08/14 00:31:18;;;;;;;8.18;5.15;;;;;;;;;;6222152;28;20406;-79
2021/08/14 00:34:20;;;;;;;7.40;4.65;;;;;;;;;;6230773;28;20046;-79
2021/08/14 00:37:22;;;;;;;6.75;4.88;;;;;;;;;;6228362;28;20050;-79
2021/08/14 00:40:23;;;;;;;6.95;4.88;;;;;;;;;;6214002;28;20046;-80
2021/08/14 00:43:25;;;;;;;6.55;4.65;;;;;;;;;;6229563;28;20121;-80
2021/08/14 00:46:28;;;;;;;6.88;4.53;;;;;;;;;;6231986;28;20038;-80
2021/08/14 00:49:29;;;;;;;6.93;5.32;;;;;;;;;;6229282;28;20058;-79
2021/08/14 00:52:31;;;;;;;8.85;5.00;;;;;;;;;;6228694;28;20073;-79
2021/08/14 00:55:33;;;;;;;6.78;5.25;;;;;;;;;;6228851;28;20050;-80
2021/08/14 00:58:35;;;;;;;6.80;5.35;;;;;;;;;;6244837;28;20133;-80
2021/08/14 01:01:36;;;;;;;6.63;4.50;;;;;;;;;;6228961;28;20052;-80
2021/08/14 01:04:38;;;;;;;6.68;4.65;;;;;;;;;;6227975;28;20105;-80
2021/08/14 01:07:40;;;;;;;7.25;4.75;;;;;;;;;;6207006;28;20122;-79
2021/08/14 01:10:42;;;;;;;6.25;4.18;;;;;;;;;;6206337;28;20050;-79
2021/08/14 01:13:45;;;;;;;6.63;4.80;;;;;;;;;;6213002;28;20156;-79
2021/08/14 01:16:47;;;;;;;10.27;5.20;;;;;;;;;;6212865;28;20137;-80
2021/08/14 01:19:48;;;;;;;7.20;4.85;;;;;;;;;;6231083;28;20096;-80
2021/08/14 01:22:50;;;;;;;7.80;5.38;;;;;;;;;;6230076;28;20042;-79
2021/08/14 01:26:00;;;;;;;;;;;;;;;;;;6228715;28;20053;-79
2021/08/14 01:29:01;;;;;;;7.30;5.30;;;;;;;;;;6253324;28;19932;-80
2021/08/14 01:32:04;;;;;;;9.18;5.07;;;;;;;;;;6217536;28;20069;-79
2021/08/14 01:35:07;;;;;;;7.20;5.30;;;;;;;;;;6229264;28;20547;-79
2021/08/14 01:38:09;;;;;;;9.43;6.15;;;;;;;;;;6225828;28;20048;-79
2021/08/14 01:41:10;;;;;;;10.68;6.28;;;;;;;;;;6231437;28;20081;-80
2021/08/14 01:44:12;;;;;;;10.93;6.68;;;;;;;;;;6231748;28;20068;-80
2021/08/14 01:47:13;;;;;;;13.02;6.95;;;;;;;;;;6241468;28;20052;-80
2021/08/14 01:50:15;;;;;;;10.80;6.90;;;;;;;;;;6229551;28;20066;-80
2021/08/14 01:53:17;;;;;;;12.05;6.97;;;;;;;;;;6221154;28;20132;-79
2021/08/14 01:56:20;;;;;;;12.38;7.25;;;;;;;;;;6229936;28;20046;-80
2021/08/14 01:59:21;;;;;;;13.20;7.35;;;;;;;;;;6230259;28;20143;-80
2021/08/14 02:02:23;;;;;;;20.02;8.32;;;;;;;;;;6228650;28;20106;-80
2021/08/14 02:05:26;;;;;;;16.13;7.13;;;;;;;;;;6251470;28;20085;-80
2021/08/14 02:08:28;;;;;;;14.52;7.68;;;;;;;;;;6251016;28;20124;-80
2021/08/14 02:11:36;;;;;;;16.75;7.63;;;;;;;;;;6234508;28;20059;-80
2021/08/14 02:14:37;;;;;;;15.15;7.53;;;;;;;;;;6233141;28;20045;-80
2021/08/14 02:17:39;;;;;;;17.83;7.57;;;;;;;;;;6251833;28;20068;-80
2021/08/14 02:20:41;;;;;;;15.80;7.18;;;;;;;;;;6250086;28;20056;-80
2021/08/14 02:23:43;;;;;;;14.57;6.47;;;;;;;;;;6252040;28;20049;-80
2021/08/14 02:26:44;;;;;;;16.55;7.15;;;;;;;;;;6254503;28;20091;-79
2021/08/14 02:29:46;;;;;;;21.20;8.55;;;;;;;;;;6252462;28;20045;-80
2021/08/14 02:32:47;;;;;;;21.75;8.38;;;;;;;;;;6226245;28;20060;-80
2021/08/14 02:35:50;;;;;;;21.50;8.27;;;;;;;;;;6251197;28;20046;-79
2021/08/14 02:38:52;;;;;;;20.92;8.07;;;;;;;;;;6234832;28;20326;-79
2021/08/14 02:41:54;;;;;;;16.70;7.68;;;;;;;;;;6233323;28;20060;-79
2021/08/14 02:44:55;;;;;;;14.45;8.02;;;;;;;;;;6248577;28;20043;-79
2021/08/14 02:47:57;;;;;;;13.52;7.50;;;;;;;;;;6251752;28;20045;-79
2021/08/14 02:50:59;;;;;;;15.43;7.60;;;;;;;;;;6251605;28;20148;-80
2021/08/14 02:54:00;;;;;;;16.13;7.35;;;;;;;;;;6255004;28;20049;-80
2021/08/14 02:57:02;;;;;;;17.05;7.90;;;;;;;;;;6257752;28;20045;-80
2021/08/14 03:00:04;;;;;;;15.40;8.50;;;;;;;;;;6205256;28;20035;-79
2021/08/14 03:03:06;;;;;;;16.33;8.13;;;;;;;;;;6227668;28;20399;-80
2021/08/14 03:06:27;;;;;;;11.50;7.00;;;;;;;;;;6232844;28;20061;-80
2021/08/14 03:09:28;;;;;;;13.43;6.88;;;;;;;;;;6233780;28;20072;-80
2021/08/14 03:12:30;;;;;;;11.95;6.82;;;;;;;;;;6233782;28;20086;-80
2021/08/14 03:15:32;;;;;;;10.57;6.45;;;;;;;;;;6247291;28;20061;-80
2021/08/14 03:18:33;;;;;;;12.30;6.50;;;;;;;;;;6231528;28;20057;-80
2021/08/14 03:21:35;;;;;;;11.63;6.75;;;;;;;;;;6232452;28;20041;-80
2021/08/14 03:24:38;;;;;;;15.82;7.45;;;;;;;;;;6234061;28;20069;-79
2021/08/14 03:27:39;;;;;;;10.38;6.82;;;;;;;;;;6233375;28;20072;-79
2021/08/14 03:30:41;;;;;;;11.27;6.45;;;;;;;;;;6227658;28;20136;-80
2021/08/14 03:33:42;;;;;;;10.15;5.97;;;;;;;;;;6224206;28;20433;-80
2021/08/14 03:36:44;;;;;;;10.00;6.28;;;;;;;;;;6216986;28;20050;-77
2021/08/14 03:39:46;;;;;;;11.07;7.35;;;;;;;;;;6220359;28;20054;-77
2021/08/14 03:42:47;;;;;;;11.48;7.03;;;;;;;;;;6218008;28;20416;-77
2021/08/14 03:45:53;;;;;;;10.70;6.67;;;;;;;;;;6217016;28;20050;-77
2021/08/14 03:48:55;;;;;;;13.15;7.13;;;;;;;;;;6213985;28;20056;-77
2021/08/14 03:51:56;;;;;;;12.65;7.20;;;;;;;;;;6216738;28;20034;-76
2021/08/14 03:54:58;;;;;;;11.90;7.00;;;;;;;;;;6216176;28;20049;-77
2021/08/14 03:57:59;;;;;;;10.60;7.07;;;;;;;;;;6213876;28;20057;-77
2021/08/14 04:01:02;;;;;;;11.05;6.82;;;;;;;;;;6211408;28;20060;-77
2021/08/14 04:04:04;;;;;;;;;;;;;;;;;;6229034;28;20048;-77
2021/08/14 04:07:06;;;;;;;13.27;6.95;;;;;;;;;;6210770;28;19932;-77
2021/08/14 04:10:08;;;;;;;12.18;6.80;;;;;;;;;;6210703;28;20061;-77
2021/08/14 04:13:09;;;;;;;15.65;6.85;;;;;;;;;;6210163;28;20060;-77
2021/08/14 04:16:11;;;;;;;22.25;7.45;;;;;;;;;;6211912;28;20054;-77
2021/08/14 04:19:13;;;;;;;25.45;8.77;;;;;;;;;;6213710;28;20380;-77
2021/08/14 04:22:14;;;;;;;20.73;8.73;;;;;;;;;;6213562;28;20046;-77
2021/08/14 04:25:16;;;;;;;14.52;8.57;;;;;;;;;;6215677;28;20402;-77
2021/08/14 04:28:18;;;;;;;28.48;8.88;;;;;;;;;;6214808;28;20165;-77
2021/08/14 04:31:19;;;;;;;13.80;7.82;;;;;;;;;;6211299;28;20034;-77
2021/08/14 04:34:21;;;;;;;14.57;8.10;;;;;;;;;;6214819;28;20049;-77
2021/08/14 04:37:22;;;;;;;13.13;7.13;;;;;;;;;;6229739;28;20491;-77
2021/08/14 04:40:24;;;;;;;10.90;6.68;;;;;;;;;;6215604;28;20045;-77
2021/08/14 04:43:26;;;;;;;20.90;7.20;;;;;;;;;;6213424;28;20057;-77
2021/08/14 04:46:27;;;;;;;17.25;6.53;;;;;;;;;;6215520;28;20048;-76
2021/08/14 04:49:29;;;;;;;11.73;6.90;;;;;;;;;;6215502;28;20045;-76
2021/08/14 04:52:31;;;;;;;23.83;7.72;;;;;;;;;;6212977;28;20053;-76
2021/08/14 04:55:33;;;;;;;43.97;8.03;;;;;;;;;;6237386;28;20840;-76
2021/08/14 04:58:34;;;;;;;10.55;6.97;;;;;;;;;;6213199;28;20619;-76
2021/08/14 05:01:36;;;;;;;14.75;7.88;;;;;;;;;;6214257;28;20523;-76
2021/08/14 05:04:38;;;;;;;12.10;6.93;;;;;;;;;;6214874;28;20054;-76
2021/08/14 05:07:40;;;;;;;11.05;7.38;;;;;;;;;;6212090;28;20184;-75
2021/08/14 05:10:41;;;;;;;26.20;7.25;;;;;;;;;;6213225;28;20104;-76
2021/08/14 05:13:43;;;;;;;12.98;6.53;;;;;;;;;;6211605;28;20050;-76
2021/08/14 05:16:45;;;;;;;11.68;6.68;;;;;;;;;;6212857;28;20563;-76
2021/08/14 05:19:46;;;;;;;11.73;6.60;;;;;;;;;;6212765;28;20041;-76
2021/08/14 05:22:48;;;;;;;11.38;6.25;;;;;;;;;;6188868;28;20050;-76
2021/08/14 05:25:50;;;;;;;9.68;5.70;;;;;;;;;;6187789;28;20034;-76
2021/08/14 05:28:53;;;;;;;21.08;6.28;;;;;;;;;;6195887;28;20072;-76
2021/08/14 05:31:54;;;;;;;10.65;6.25;;;;;;;;;;6190086;28;20049;-76
2021/08/14 05:34:56;;;;;;;14.20;6.63;;;;;;;;;;6209538;28;20042;-76
2021/08/14 05:37:57;;;;;;;12.60;6.50;;;;;;;;;;6213754;28;20042;-76
2021/08/14 05:40:59;;;;;;;10.18;5.82;;;;;;;;;;6212039;28;20050;-76
2021/08/14 05:44:00;;;;;;;16.45;6.65;;;;;;;;;;6239111;28;20037;-76
2021/08/14 05:47:02;;;;;;;13.98;6.28;;;;;;;;;;6219504;28;20495;-76
2021/08/14 05:50:04;;;;;;;10.52;5.47;;;;;;;;;;6214204;28;20385;-75
2021/08/14 05:53:06;;;;;;;8.80;6.37;;;;;;;;;;6213450;28;20434;-76
2021/08/14 05:56:07;;;;;;;10.73;6.30;;;;;;;;;;6211402;28;20183;-77
2021/08/14 05:59:09;;;;;;;7.80;5.63;;;;;;;;;;6212998;28;20053;-76
2021/08/14 06:02:10;;;;;;;8.52;5.90;;;;;;;;;;6213198;28;20057;-76
2021/08/14 06:05:12;;;;;;;10.13;6.68;;;;;;;;;;6211905;28;20044;-77
2021/08/14 06:08:14;;;;;;;9.82;5.88;;;;;;;;;;6206608;28;20125;-76
2021/08/14 06:11:15;;;;;;;10.32;6.18;;;;;;;;;;6213320;28;20042;-76
2021/08/14 06:14:17;;;;;;;8.55;5.75;;;;;;;;;;6209024;28;20045;-76
2021/08/14 06:17:19;;;;;;;8.50;5.90;;;;;;;;;;6234278;28;20044;-76
2021/08/14 06:20:21;;;;;;;8.48;5.45;;;;;;;;;;6234149;28;20052;-76
2021/08/14 06:23:22;;;;;;;7.68;5.25;;;;;;;;;;6234654;28;20134;-76
2021/08/14 06:26:24;;;;;;;7.22;5.47;;;;;;;;;;6233352;28;20038;-76
2021/08/14 06:29:26;;;;;;;7.22;5.03;;;;;;;;;;6239083;28;20045;-77
2021/08/14 06:32:27;;;;;;;6.13;5.00;;;;;;;;;;6239770;28;20044;-76
2021/08/14 06:35:29;;;;;;;8.30;5.18;;;;;;;;;;6214342;28;20047;-77
2021/08/14 06:38:31;;;;;;;6.97;4.97;;;;;;;;;;6232545;28;20068;-77
2021/08/14 06:41:32;;;;;;;8.88;4.90;;;;;;;;;;6226477;28;20072;-77
2021/08/14 06:44:34;;;;;;;7.05;5.40;;;;;;;;;;6217720;28;20045;-77
2021/08/14 06:47:36;;;;;;;9.85;5.40;;;;;;;;;;6216993;28;20060;-78
2021/08/14 06:50:37;;;;;;;7.30;4.95;;;;;;;;;;6219487;28;20050;-77
2021/08/14 06:53:39;;;;;;;5.97;4.57;;;;;;;;;;6215963;28;20062;-77
2021/08/14 06:56:41;;;;;;;6.57;5.10;;;;;;;;;;6239582;28;20076;-77
2021/08/14 06:59:43;;;;;;;7.07;5.28;;;;;;;;;;6219660;28;20084;-76
2021/08/14 07:02:44;;;;;;;6.38;4.72;;;;;;;;;;6210610;28;20056;-76
2021/08/14 07:05:46;;;;;;;8.00;4.60;;;;;;;;;;6238389;28;20581;-78
2021/08/14 07:08:49;;;;;;;7.18;4.88;;;;;;;;;;6206283;28;22001;-77
2021/08/14 07:11:50;;;;;;;7.03;4.93;;;;;;;;;;6237406;28;20042;-78
2021/08/14 07:14:52;;;;;;;7.10;4.47;;;;;;;;;;6206139;28;20041;-77
2021/08/14 07:17:54;;;;;;;8.52;4.70;;;;;;;;;;6242858;28;20046;-78
2021/08/14 07:20:55;;;;;;;7.47;5.03;;;;;;;;;;6200531;28;20088;-77
2021/08/14 07:23:57;;;;;;;6.57;4.78;;;;;;;;;;6244840;28;20040;-78
2021/08/14 07:26:59;;;;;;;8.30;5.03;;;;;;;;;;6243591;28;20414;-77
2021/08/14 07:30:00;;;;;;;6.68;5.10;;;;;;;;;;6243894;28;20048;-77
2021/08/14 07:33:02;;;;;;;7.18;4.38;;;;;;;;;;6243940;28;20041;-77
2021/08/14 07:36:07;;;;;;;7.70;4.75;;;;;;;;;;6243022;28;20048;-79
2021/08/14 07:39:08;;;;;;;6.25;4.50;;;;;;;;;;6244130;28;20037;-77
2021/08/14 07:42:10;;;;;;;8.02;5.20;;;;;;;;;;6243664;28;20575;-78
2021/08/14 07:45:17;;;;;;;7.22;4.97;;;;;;;;;;6224084;28;20045;-79
2021/08/14 07:48:18;;;;;;;9.18;5.15;;;;;;;;;;6232793;28;20042;-78
2021/08/14 07:51:20;;;;;;;6.15;4.53;;;;;;;;;;6242171;28;20104;-77
2021/08/14 07:54:22;;;;;;;6.80;4.85;;;;;;;;;;6233125;28;20045;-78
2021/08/14 07:57:23;;;;;;;6.40;4.90;;;;;;;;;;6244713;28;20060;-78
2021/08/14 08:00:26;;;;;;;7.50;4.70;;;;;;;;;;6243521;28;20053;-78
2021/08/14 08:03:31;;;;;;;7.50;4.47;;;;;;;;;;6240875;28;20042;-78
2021/08/14 08:06:36;;;;;;;7.18;4.63;;;;;;;;;;6241601;28;20049;-78
2021/08/14 08:09:38;;;;;;;6.07;4.50;;;;;;;;;;6241971;28;20187;-78
2021/08/14 08:12:40;;;;;;;6.65;4.43;;;;;;;;;;6242035;28;20060;-78
2021/08/14 08:15:42;;;;;;;6.32;4.60;;;;;;;;;;6239517;28;20172;-78
2021/08/14 08:18:44;;;;;;;6.78;4.70;;;;;;;;;;6244303;28;20045;-77
2021/08/14 08:21:45;;;;;;;5.97;4.75;;;;;;;;;;6209503;28;20046;-77
2021/08/14 08:24:47;;;;;;;6.68;4.53;;;;;;;;;;6229492;28;20069;-78
2021/08/14 08:27:50;;;;;;;8.25;4.97;;;;;;;;;;6244031;28;20052;-77
2021/08/14 08:30:51;;;;;;;7.65;4.97;;;;;;;;;;6237975;28;20050;-77
2021/08/14 08:33:53;;;;;;;6.93;4.75;;;;;;;;;;6217287;28;20119;-78
2021/08/14 08:36:55;;;;;;;8.73;4.70;;;;;;;;;;6193803;28;20055;-77
2021/08/14 08:39:57;;;;;;;6.67;4.87;;;;;;;;;;6202842;28;20128;-79
2021/08/14 08:42:59;;;;;;;6.78;4.53;;;;;;;;;;6218707;28;20399;-78
2021/08/14 08:46:00;;;;;;;6.60;4.55;;;;;;;;;;6209146;28;20041;-77
2021/08/14 08:49:06;;;;;;;6.25;4.55;;;;;;;;;;6237632;28;20111;-77
2021/08/14 08:52:08;;;;;;;6.25;4.55;;;;;;;;;;6203975;28;20046;-77
2021/08/14 08:55:13;;;;;;;5.70;4.60;;;;;;;;;;6237697;28;20041;-76
2021/08/14 08:58:15;;;;;;;6.82;4.55;;;;;;;;;;6238553;28;20050;-77
2021/08/14 09:01:17;;;;;;;7.20;4.18;;;;;;;;;;6236829;28;20124;-78
2021/08/14 09:04:27;;;;;;;5.25;4.28;;;;;;;;;;6237739;28;20411;-77
2021/08/14 09:07:29;;;;;;;6.38;4.10;;;;;;;;;;6237194;28;20041;-77
2021/08/14 09:10:31;;;;;;;6.23;4.60;;;;;;;;;;6228621;28;20043;-79
2021/08/14 09:13:35;;;;;;;7.13;4.13;;;;;;;;;;6189655;28;20073;-79
2021/08/14 09:16:40;;;;;;;4.93;3.80;;;;;;;;;;6206885;28;20049;-80
2021/08/14 09:19:42;;;;;;;7.32;4.10;;;;;;;;;;6218783;28;20058;-79
2021/08/14 09:22:59;;;;;;;6.60;4.53;;;;;;;;;;6196966;28;20081;-79
2021/08/14 09:26:03;;;;;;;6.07;3.95;;;;;;;;;;6206758;28;20759;-79
2021/08/14 09:29:06;;;;;;;7.28;3.67;;;;;;;;;;6215587;28;20129;-81
2021/08/14 09:32:25;;;;;;;4.63;3.95;;;;;;;;;;6222275;28;20049;-80
2021/08/14 09:35:33;;;;;;;4.43;3.78;;;;;;;;;;6211652;28;20197;-80
2021/08/14 09:38:48;;;;;;;4.47;3.47;;;;;;;;;;6171689;28;20046;-80
2021/08/14 09:42:05;;;;;;;5.75;3.60;;;;;;;;;;6202830;28;20471;-80
2021/08/14 09:45:15;;;;;;;5.20;3.40;;;;;;;;;;6193055;28;20054;-80
2021/08/14 09:48:21;;;;;;;5.10;3.80;;;;;;;;;;6181393;28;20042;-80
2021/08/14 09:51:29;;;;;;;4.25;3.15;;;;;;;;;;6219712;28;20051;-80
2021/08/14 09:54:37;;;;;;;4.05;3.13;;;;;;;;;;6213207;28;20053;-80
2021/08/14 09:57:45;;;;;;;5.13;3.65;;;;;;;;;;6231565;28;20131;-79
2021/08/14 10:00:49;;;;;;;4.22;3.30;;;;;;;;;;6191129;28;20061;-79
2021/08/14 10:03:54;;;;;;;5.22;3.20;;;;;;;;;;6198799;28;20060;-79
2021/08/14 10:06:56;;;;;;;4.03;3.40;;;;;;;;;;6203326;28;20041;-78
2021/08/14 10:10:00;;;;;;;4.05;2.95;;;;;;;;;;6211836;28;20500;-80
2021/08/14 10:13:02;;;;;;;5.03;3.25;;;;;;;;;;6224748;28;20041;-77
2021/08/14 10:16:04;;;;;;;5.25;3.40;;;;;;;;;;6206058;28;20061;-78
2021/08/14 10:19:06;;;;;;;6.20;3.45;;;;;;;;;;6219970;28;20041;-77
2021/08/14 10:22:10;;;;;;;5.57;3.35;;;;;;;;;;6233616;28;20045;-78
2021/08/14 10:25:18;;;;;;;6.47;3.60;;;;;;;;;;6216022;28;20047;-77
2021/08/14 10:28:50;;;;;;;3.88;3.20;;;;;;;;;;6203836;28;20045;-78
2021/08/14 10:31:52;;;;;;;5.15;3.67;;;;;;;;;;6212601;28;20060;-77
2021/08/14 10:35:20;;;;;;;16.20;3.45;;;;;;;;;;6209156;28;20415;-78
2021/08/14 10:38:40;;;;;;;3.65;2.88;;;;;;;;;;6185370;28;20038;-77
2021/08/14 10:41:43;;;;;;;5.20;3.03;;;;;;;;;;6186418;28;20506;-79
2021/08/14 10:44:46;;;;;;;5.43;3.35;;;;;;;;;;6199812;28;20053;-78
2021/08/14 10:47:50;;;;;;;5.70;3.00;;;;;;;;;;6194411;28;20045;-78
2021/08/14 10:50:55;;;;;;;6.38;3.13;;;;;;;;;;6174473;28;20057;-79
2021/08/14 10:54:00;;;;;;;4.25;3.33;;;;;;;;;;6182841;28;21745;-77
2021/08/14 10:57:04;;;;;;;3.20;2.75;;;;;;;;;;6217960;28;20064;-78
2021/08/14 11:00:24;;;;;;;5.05;2.63;;;;;;;;;;6188849;28;20050;-78
2021/08/14 11:03:36;;;;;;;3.97;2.90;;;;;;;;;;6201333;28;20134;-78
2021/08/14 11:06:38;;;;;;;;;;;;;;;;;;6212454;28;20072;-77
2021/08/14 11:09:40;;;;;;;4.75;2.40;;;;;;;;;;6191028;28;19921;-77
2021/08/14 11:12:47;;;;;;;3.13;2.58;;;;;;;;;;6195106;28;20581;-77
2021/08/14 11:15:49;;;;;;;3.15;2.53;;;;;;;;;;6219867;28;20082;-77
2021/08/14 11:18:53;;;;;;;3.78;2.30;;;;;;;;;;6231393;28;20041;-77
2021/08/14 11:21:55;;;;;;;2.15;1.90;;;;;;;;;;6205705;28;20388;-77
2021/08/14 11:25:04;;;;;;;3.03;2.42;;;;;;;;;;6192830;28;20045;-78
2021/08/14 11:28:11;;;;;;;3.80;2.53;;;;;;;;;;6219263;28;20047;-77
2021/08/14 11:31:24;;;;;;;3.25;2.28;;;;;;;;;;6166165;28;20048;-78
2021/08/14 11:34:26;;;;;;;4.43;2.73;;;;;;;;;;6182411;28;20046;-77
2021/08/14 11:37:54;;;;;;;4.85;2.78;;;;;;;;;;6151959;28;20288;-78
2021/08/14 11:40:56;;;;;;;3.03;2.10;;;;;;;;;;6151992;28;20496;-78
2021/08/14 11:44:07;;;;;;;3.92;2.30;;;;;;;;;;6163051;28;20053;-77
2021/08/14 11:47:12;;;;;;;3.83;2.58;;;;;;;;;;6207839;28;20060;-77
2021/08/14 11:50:18;;;;;;;2.08;1.88;;;;;;;;;;6180523;28;20510;-77
2021/08/14 11:53:27;;;;;;;2.85;2.33;;;;;;;;;;6200400;28;20049;-77
2021/08/14 11:56:32;;;;;;;2.58;2.10;;;;;;;;;;6166717;28;20132;-78
2021/08/14 11:59:34;;;;;;;;;;;;;;;;;;6234699;28;20491;-78
2021/08/14 12:02:36;;;;;;;2.80;2.20;;;;;;;;;;6217666;28;19932;-78
2021/08/14 12:05:48;;;;;;;;;;;;;;;;;;6210933;28;20042;-77
2021/08/14 12:08:50;;;;;;;2.88;1.90;;;;;;;;;;6218595;28;20437;-79
2021/08/14 12:11:55;;;;;;;6.13;5.63;;;;;;;;;;6162647;28;20053;-78
2021/08/14 12:14:58;;;;;;;3.63;2.35;;;;;;;;;;6206041;28;20050;-77
2021/08/14 12:18:00;;;;;;;3.20;2.40;;;;;;;;;;6195183;28;20067;-78
2021/08/14 12:21:04;;;;;;;3.90;2.30;;;;;;;;;;6233317;28;20049;-80
2021/08/14 12:24:06;;;;;;;2.75;2.17;;;;;;;;;;6227867;28;20057;-78
2021/08/14 12:27:28;;;;;;;;;;;;;;;;;;6239362;28;20176;-79
2021/08/14 12:30:40;;;;;;;3.97;2.33;;;;;;;;;;6223617;28;19925;-77
2021/08/14 12:33:54;;;;;;;3.75;2.50;;;;;;;;;;6239910;28;20050;-79
2021/08/14 12:36:58;;;;;;;4.00;2.45;;;;;;;;;;6241112;28;20494;-79
2021/08/14 12:40:05;;;;;;;3.63;2.65;;;;;;;;;;6229977;28;20145;-79
2021/08/14 12:43:17;;;;;;;3.60;2.25;;;;;;;;;;6239648;28;20392;-81
2021/08/14 12:46:23;;;;;;;;;;;;;;;;;;6211301;28;20041;-79
2021/08/14 12:49:25;;;;;;;3.40;2.53;;;;;;;;;;6229912;28;19921;-77
2021/08/14 12:52:27;;;;;;;4.32;2.88;;;;;;;;;;6205693;28;20411;-77
2021/08/14 12:55:40;;;;;;;4.85;2.85;;;;;;;;;;6238402;28;20090;-78
2021/08/14 12:58:42;;;;;;;3.63;3.00;;;;;;;;;;6238829;28;20053;-78
2021/08/14 13:02:03;;;;;;;3.00;2.70;;;;;;;;;;6216879;28;20518;-79
2021/08/14 13:05:06;;;;;;;6.18;3.05;;;;;;;;;;6220325;28;20047;-79
2021/08/14 13:08:08;;;;;;;3.30;2.78;;;;;;;;;;6211207;28;20361;-78
2021/08/14 13:11:10;;;;;;;3.40;2.80;;;;;;;;;;6201968;28;20057;-79
2021/08/14 13:14:12;;;;;;;3.40;2.70;;;;;;;;;;6234234;28;20560;-77
2021/08/14 13:17:19;;;;;;;3.47;2.60;;;;;;;;;;6219943;28;20101;-78
2021/08/14 13:20:23;;;;;;;4.03;2.83;;;;;;;;;;6217117;28;20042;-78
2021/08/14 13:23:25;;;;;;;3.85;2.97;;;;;;;;;;6218754;28;20042;-78
2021/08/14 13:26:27;;;;;;;4.75;2.88;;;;;;;;;;6238709;28;20474;-79
2021/08/14 13:29:30;;;;;;;;;;;;;;;;;;6235793;28;20123;-78
2021/08/14 13:32:32;;;;;;;4.07;2.78;;;;;;;;;;6215063;28;19972;-78
2021/08/14 13:35:34;;;;;;;3.35;2.67;;;;;;;;;;6235285;28;20053;-79
2021/08/14 13:38:37;;;;;;;3.75;3.03;;;;;;;;;;6238988;28;20045;-78
2021/08/14 13:41:39;;;;;;;3.85;3.20;;;;;;;;;;6232188;28;20055;-79
2021/08/14 13:44:41;;;;;;;4.85;3.00;;;;;;;;;;6222177;28;20073;-78
2021/08/14 13:48:03;;;;;;;7.07;3.40;;;;;;;;;;6238437;28;20048;-78
2021/08/14 13:51:05;;;;;;;4.68;3.10;;;;;;;;;;6212053;28;20049;-78
2021/08/14 13:54:06;;;;;;;3.40;3.10;;;;;;;;;;6242188;28;20079;-78
2021/08/14 13:57:08;;;;;;;3.58;2.95;;;;;;;;;;6241191;28;20041;-78
2021/08/14 14:00:10;;;;;;;3.90;2.97;;;;;;;;;;6240531;28;20049;-77
2021/08/14 14:03:11;;;;;;;;;;;;;;;;;;6240821;28;20038;-77
2021/08/14 14:06:13;;;;;;;4.90;2.97;;;;;;;;;;6215089;28;19921;-77
2021/08/14 14:09:15;;;;;;;5.32;3.20;;;;;;;;;;6219535;28;20050;-78
2021/08/14 14:12:17;;;;;;;4.13;3.38;;;;;;;;;;6200898;28;20038;-77
2021/08/14 14:15:18;;;;;;;4.28;3.00;;;;;;;;;;6224697;28;20146;-77
2021/08/14 14:18:20;;;;;;;5.50;3.20;;;;;;;;;;6244072;28;20057;-77
2021/08/14 14:21:22;;;;;;;7.03;3.25;;;;;;;;;;6240124;28;20179;-78
2021/08/14 14:24:23;;;;;;;4.07;3.10;;;;;;;;;;6242727;28;20056;-77
2021/08/14 14:27:25;;;;;;;;;;;;;;;;;;6244216;28;20132;-79
2021/08/14 14:30:27;;;;;;;4.90;3.15;;;;;;;;;;6243109;28;19927;-79
2021/08/14 14:33:29;;;;;;;4.80;3.40;;;;;;;;;;6244847;28;20063;-79
2021/08/14 14:36:31;;;;;;;4.95;3.15;;;;;;;;;;6244371;28;20491;-79
2021/08/14 14:39:34;;;;;;;5.10;3.22;;;;;;;;;;6249180;28;20078;-79
2021/08/14 14:42:37;;;;;;;5.15;3.60;;;;;;;;;;6247595;28;20054;-80
2021/08/14 14:45:38;;;;;;;3.67;3.10;;;;;;;;;;6246751;28;20101;-79
2021/08/14 14:48:40;;;;;;;4.72;3.60;;;;;;;;;;6234047;28;20058;-80
2021/08/14 14:51:44;;;;;;;3.22;2.90;;;;;;;;;;6248323;28;20053;-79
2021/08/14 14:54:46;;;;;;;4.50;3.30;;;;;;;;;;6250265;28;20060;-79
2021/08/14 14:57:48;;;;;;;4.68;3.30;;;;;;;;;;6252720;28;20475;-79
2021/08/14 15:00:51;;;;;;;6.50;3.65;;;;;;;;;;6253411;28;20101;-80
2021/08/14 15:03:52;;;;;;;6.22;3.67;;;;;;;;;;6251600;28;20224;-80
2021/08/14 15:06:54;;;;;;;5.03;3.00;;;;;;;;;;6233588;28;20117;-78
2021/08/14 15:09:56;;;;;;;4.28;3.42;;;;;;;;;;6250043;28;20052;-79
2021/08/14 15:12:57;;;;;;;4.40;3.80;;;;;;;;;;6250746;28;20096;-80
2021/08/14 15:15:59;;;;;;;4.82;3.22;;;;;;;;;;6248703;28;20467;-79
2021/08/14 15:19:00;;;;;;;5.07;3.20;;;;;;;;;;6251116;28;20050;-77
2021/08/14 15:22:02;;;;;;;3.97;3.20;;;;;;;;;;6246200;28;20038;-78
2021/08/14 15:25:05;;;;;;;3.03;2.65;;;;;;;;;;6245370;28;20041;-78
2021/08/14 15:28:07;;;;;;;4.00;3.45;;;;;;;;;;6228648;28;20490;-79
2021/08/14 15:31:12;;;;;;;4.65;3.20;;;;;;;;;;6230355;28;20423;-79
2021/08/14 15:34:14;;;;;;;4.30;3.15;;;;;;;;;;6246186;28;20052;-77
2021/08/14 15:37:16;;;;;;;3.95;3.28;;;;;;;;;;6246823;28;20087;-78
2021/08/14 15:40:18;;;;;;;5.60;3.13;;;;;;;;;;6247936;28;20045;-77
2021/08/14 15:43:19;;;;;;;4.75;3.30;;;;;;;;;;6231676;28;20052;-77
2021/08/14 15:46:21;;;;;;;4.40;3.05;;;;;;;;;;6232080;28;20120;-78
2021/08/14 15:49:23;;;;;;;4.55;3.30;;;;;;;;;;6220887;28;20042;-78
2021/08/14 15:52:24;;;;;;;4.20;2.95;;;;;;;;;;6221932;28;20073;-78
2021/08/14 15:55:26;;;;;;;4.45;2.97;;;;;;;;;;6208905;28;20471;-77
2021/08/14 15:58:28;;;;;;;;;;;;;;;;;;6216151;28;20177;-78
2021/08/14 16:01:32;;;;;;;3.97;3.20;;;;;;;;;;6220629;28;20466;-78
2021/08/14 16:04:35;;;;;;;4.82;3.20;;;;;;;;;;6236236;28;20049;-78
2021/08/14 16:07:37;;;;;;;5.38;3.10;;;;;;;;;;6210190;28;20042;-77
2021/08/14 16:10:39;;;;;;;4.32;3.05;;;;;;;;;;6219012;28;20050;-78
2021/08/14 16:13:40;;;;;;;4.38;3.28;;;;;;;;;;6210048;28;20064;-77
2021/08/14 16:16:42;;;;;;;5.07;3.17;;;;;;;;;;6224500;28;20041;-78
2021/08/14 16:19:43;;;;;;;4.95;3.25;;;;;;;;;;6231663;28;20053;-78
2021/08/14 16:22:45;;;;;;;4.88;3.83;;;;;;;;;;6221668;28;20054;-78
2021/08/14 16:25:47;;;;;;;5.88;3.30;;;;;;;;;;6222890;28;20048;-78
2021/08/14 16:28:48;;;;;;;6.38;3.25;;;;;;;;;;6220377;28;20141;-77
2021/08/14 16:31:50;;;;;;;4.50;3.60;;;;;;;;;;6223811;28;20415;-78
2021/08/14 16:34:52;;;;;;;4.53;3.17;;;;;;;;;;6200799;28;20138;-78
2021/08/14 16:37:53;;;;;;;5.93;3.05;;;;;;;;;;6236234;28;20176;-78
2021/08/14 16:40:55;;;;;;;3.65;2.88;;;;;;;;;;6235003;28;20045;-78
2021/08/14 16:43:56;;;;;;;4.20;2.90;;;;;;;;;;6239415;28;20120;-77
2021/08/14 16:46:58;;;;;;;5.95;3.58;;;;;;;;;;6188406;28;20084;-78
2021/08/14 16:50:00;;;;;;;5.72;3.40;;;;;;;;;;6217176;28;20419;-77
2021/08/14 16:53:04;;;;;;;5.18;3.03;;;;;;;;;;6237395;28;20045;-78
2021/08/14 16:56:06;;;;;;;6.47;3.45;;;;;;;;;;6238734;28;20060;-78
2021/08/14 16:59:07;;;;;;;5.57;3.50;;;;;;;;;;6239859;28;20049;-77
2021/08/14 17:02:15;;;;;;;4.25;3.08;;;;;;;;;;6235038;28;20064;-76
2021/08/14 17:05:17;;;;;;;6.55;3.10;;;;;;;;;;6237351;28;20060;-77
2021/08/14 17:08:21;;;;;;;3.70;3.10;;;;;;;;;;6215454;28;20050;-77
2021/08/14 17:11:23;;;;;;;5.38;3.00;;;;;;;;;;6214606;28;20080;-78
2021/08/14 17:14:25;;;;;;;5.00;3.25;;;;;;;;;;6218937;28;20373;-78
2021/08/14 17:17:26;;;;;;;5.37;3.17;;;;;;;;;;6232831;28;20045;-78
2021/08/14 17:20:28;;;;;;;7.60;3.08;;;;;;;;;;6237236;28;20104;-78
2021/08/14 17:23:30;;;;;;;4.80;2.80;;;;;;;;;;6216950;28;20054;-77
2021/08/14 17:26:31;;;;;;;8.00;3.08;;;;;;;;;;6217700;28;20044;-77
2021/08/14 17:29:33;;;;;;;6.87;3.20;;;;;;;;;;6213504;28;20530;-78
2021/08/14 17:32:34;;;;;;;5.13;2.73;;;;;;;;;;6241063;28;20037;-79
2021/08/14 17:35:36;;;;;;;5.23;3.00;;;;;;;;;;6237171;28;20095;-78
2021/08/14 17:38:38;;;;;;;5.17;2.57;;;;;;;;;;6222560;28;20412;-78
2021/08/14 17:41:40;;;;;;;6.00;2.73;;;;;;;;;;6214882;28;20140;-77
2021/08/14 17:44:42;;;;;;;5.95;2.92;;;;;;;;;;6213755;28;20065;-78
2021/08/14 17:47:43;;;;;;;4.83;2.70;;;;;;;;;;6216908;28;20091;-79
2021/08/14 17:50:45;;;;;;;6.17;2.80;;;;;;;;;;6209135;28;20465;-78
2021/08/14 17:53:46;;;;;;;6.40;2.90;;;;;;;;;;6242959;28;20047;-78
2021/08/14 17:56:48;;;;;;;4.47;2.90;;;;;;;;;;6238330;28;20414;-78
2021/08/14 17:59:51;;;;;;;5.20;3.03;;;;;;;;;;6235007;28;20495;-78
2021/08/14 18:02:53;;;;;;;7.35;2.92;;;;;;;;;;6235451;28;20510;-77
2021/08/14 18:05:56;;;;;;;4.50;2.80;;;;;;;;;;6235277;28;20045;-78
2021/08/14 18:08:58;;;;;;;5.15;2.88;;;;;;;;;;6228255;28;20103;-79
2021/08/14 18:12:03;;;;;;;6.45;3.22;;;;;;;;;;6213791;28;20053;-79
2021/08/14 18:15:07;;;;;;;6.30;3.13;;;;;;;;;;6211915;28;20054;-79
2021/08/14 18:18:10;;;;;;;4.20;2.72;;;;;;;;;;6192496;28;20134;-78